Aviation Digital Data Service (ADDS)

Output produced by METARs form (1407 UTC 01 September 2015)
found at http://aviationweather.gov/adds/metars/
 
KALB 011140Z 0112/0212 VRB03KT P6SM SKC 
     FM011800 VRB05KT P6SM SKC